Time;durP1;ratioP1;P1;durP2;ratioP2;P2;SDS_P1;SDS_P2;PMS_P1;PMS_P2;Temp;Humidity;BMP_temperature;BMP_pressure;BME280_temperature;BME280_humidity;BME280_pressure;Samples;Min_cycle;Max_cycle;Signal;HPM_P1;HPM_P2
2023/01/23 16:46:29;;;;;;;;;1.00;1.00;;;;;;;;5103488;27;13385;-67
2023/01/23 16:48:55;;;;;;;;;1.00;1.00;;;;;;;;5106780;27;8812;-68
2023/01/23 16:51:21;;;;;;;;;;;;;;;;;;5108732;28;9004;-68
2023/01/23 16:53:51;;;;;;;;;0.00;0.00;;;;;;;;5104635;28;7624;-68
2023/01/23 16:56:19;;;;;;;;;0.00;0.00;;;;;;;;5104575;28;8820;-68
2023/01/23 16:58:44;;;;;;;;;0.00;0.00;;;;;;;;5103488;28;8877;-68
2023/01/23 17:01:10;;;;;;;;;;;;;;;;;;5108422;28;11460;-68
2023/01/23 17:03:35;;;;;;;;;;;;;;;;;;5108115;28;8851;-68
2023/01/23 17:06:00;;;;;;;;;0.00;0.00;;;;;;;;5104406;28;7536;-68
2023/01/23 17:08:26;;;;;;;;;;;;;;;;;;5107781;28;9039;-68
2023/01/23 17:10:51;;;;;;;;;;;;;;;;;;5108000;28;8793;-68
2023/01/23 17:13:16;;;;;;;;;;;;;;;;;;5106924;28;7524;-67
2023/01/23 17:15:41;;;;;;;;;0.00;0.00;;;;;;;;5104208;28;7532;-67
2023/01/23 17:18:14;;;;;;;;;0.00;0.00;;;;;;;;5105025;28;8894;-68
2023/01/23 17:20:40;;;;;;;;;1.00;1.00;;;;;;;;5100560;28;15078;-68
2023/01/23 17:23:05;;;;;;;;;;;;;;;;;;5106502;28;9000;-69
2023/01/23 17:25:30;;;;;;;;;0.00;0.00;;;;;;;;5101891;28;7642;-69
2023/01/23 17:27:55;;;;;;;;;0.00;0.00;;;;;;;;5101705;28;13426;-68
2023/01/23 17:30:22;;;;;;;;;0.00;0.00;;;;;;;;5104407;28;8830;-69
2023/01/23 17:32:49;;;;;;;;;0.00;0.00;;;;;;;;5104539;28;8830;-68
2023/01/23 17:35:44;;;;;;;;;0.00;0.00;;;;;;;;5102302;27;11544;-68
2023/01/23 17:38:14;;;;;;;;;1.00;0.00;;;;;;;;5052563;28;11599;-65
2023/01/23 17:40:40;;;;;;;;;0.25;0.25;;;;;;;;5050398;28;11608;-65
2023/01/23 17:43:05;;;;;;;;;0.00;0.00;;;;;;;;5048280;28;12233;-65
2023/01/23 17:45:32;;;;;;;;;0.00;0.00;;;;;;;;5031294;28;13557;-67
2023/01/23 17:47:57;;;;;;;;;0.00;0.00;;;;;;;;5051892;28;8804;-68
2023/01/23 17:50:24;;;;;;;;;0.00;0.00;;;;;;;;5047549;28;11617;-65
2023/01/23 17:52:50;;;;;;;;;2.00;2.00;;;;;;;;5048326;28;13463;-66
2023/01/23 17:55:16;;;;;;;;;0.00;0.00;;;;;;;;5050921;28;8854;-65
2023/01/23 17:57:41;;;;;;;;;0.50;0.50;;;;;;;;5040755;28;12312;-66
2023/01/23 18:00:07;;;;;;;;;1.00;1.00;;;;;;;;5033708;28;13441;-67
2023/01/23 18:02:32;;;;;;;;;;;;;;;;;;5037569;28;8815;-67
2023/01/23 18:04:59;;;;;;;;;3.20;0.00;;;;;;;;5037246;28;8816;-68
2023/01/23 18:07:24;;;;;;;;;0.00;0.00;;;;;;;;5041518;28;9546;-68
2023/01/23 18:09:51;;;;;;;;;0.00;0.00;;;;;;;;5037954;28;11488;-67
2023/01/23 18:12:25;;;;;;;;;1.60;1.60;;;;;;;;5032212;28;14300;-69
2023/01/23 18:14:55;;;;;;;;;1.00;1.00;;;;;;;;5069184;28;8824;-67
2023/01/23 18:17:40;;;;;;;;;2.00;2.00;;;;;;;;5084941;28;13557;-67
2023/01/23 18:20:16;;;;;;;;;2.00;0.50;;;;;;;;5086584;27;11431;-68
2023/01/23 18:22:41;;;;;;;;;2.20;2.20;;;;;;;;5059922;28;13513;-67
2023/01/23 18:25:11;;;;;;;;;3.00;3.00;;;;;;;;5051769;28;13536;-67
2023/01/23 18:27:39;;;;;;;;;1.00;1.00;;;;;;;;5049234;28;8817;-66
2023/01/23 18:30:10;;;;;;;;;2.00;1.00;;;;;;;;5047444;28;11458;-66
2023/01/23 18:32:43;;;;;;;;;3.50;3.50;;;;;;;;5049696;28;11481;-66
2023/01/23 18:35:09;;;;;;;;;;;;;;;;;;5051166;28;12343;-64
2023/01/23 18:37:43;;;;;;;;;1.60;1.60;;;;;;;;5050373;28;9734;-63
2023/01/23 18:40:19;;;;;;;;;6.50;2.00;;;;;;;;5050561;28;8803;-64
2023/01/23 18:42:44;;;;;;;;;6.00;2.00;;;;;;;;5050574;28;11454;-64
2023/01/23 18:45:11;;;;;;;;;3.00;2.00;;;;;;;;5050587;28;11513;-64
2023/01/23 18:47:36;;;;;;;;;;;;;;;;;;5053058;28;8932;-64
2023/01/23 18:50:02;;;;;;;;;5.00;2.00;;;;;;;;5046730;28;8950;-66
2023/01/23 18:52:33;;;;;;;;;6.33;2.00;;;;;;;;5050381;28;8831;-64
2023/01/23 18:54:58;;;;;;;;;;;;;;;;;;5052373;28;8907;-65
2023/01/23 18:57:46;;;;;;;;;3.33;3.33;;;;;;;;5049926;28;8831;-68
2023/01/23 19:00:13;;;;;;;;;4.67;1.00;;;;;;;;5061009;28;8854;-68
2023/01/23 19:02:50;;;;;;;;;5.00;4.00;;;;;;;;5050100;28;11559;-66
2023/01/23 19:05:21;;;;;;;;;7.00;4.00;;;;;;;;5050106;28;11662;-65
2023/01/23 19:07:48;;;;;;;;;5.00;5.00;;;;;;;;5048961;28;11545;-65
2023/01/23 19:10:14;;;;;;;;;4.00;2.00;;;;;;;;5047516;28;11460;-66
2023/01/23 19:12:39;;;;;;;;;5.00;5.00;;;;;;;;5049850;28;11433;-66
2023/01/23 19:15:17;;;;;;;;;4.33;4.00;;;;;;;;5049751;28;11487;-66
2023/01/23 19:17:54;;;;;;;;;2.00;2.00;;;;;;;;5050113;28;8799;-68
2023/01/23 19:20:22;;;;;;;;;8.00;6.33;;;;;;;;5047641;28;11463;-66
2023/01/23 19:23:11;;;;;;;;;5.00;1.00;;;;;;;;5049457;28;8822;-65
2023/01/23 19:25:36;;;;;;;;;7.00;7.00;;;;;;;;5073156;28;12260;-67
2023/01/23 19:28:02;;;;;;;;;8.33;7.67;;;;;;;;5048084;28;8819;-66
2023/01/23 19:30:28;;;;;;;;;11.80;11.00;;;;;;;;5039481;28;14271;-66
2023/01/23 19:32:53;;;;;;;;;10.33;7.33;;;;;;;;5047369;28;8815;-65
2023/01/23 19:35:19;;;;;;;;;13.33;10.00;;;;;;;;5044631;28;13436;-66
2023/01/23 19:37:44;;;;;;;;;5.33;5.33;;;;;;;;5045476;28;8818;-65
2023/01/23 19:40:11;;;;;;;;;8.00;6.33;;;;;;;;5045832;28;8843;-68
2023/01/23 19:42:39;;;;;;;;;8.00;6.33;;;;;;;;5047852;28;8787;-67
2023/01/23 19:45:05;;;;;;;;;8.00;7.00;;;;;;;;5044874;28;11578;-69
2023/01/23 19:47:31;;;;;;;;;5.00;5.00;;;;;;;;5047571;28;11603;-68
2023/01/23 19:49:56;;;;;;;;;9.00;8.33;;;;;;;;5045783;28;8818;-69
2023/01/23 19:52:21;;;;;;;;;7.00;4.33;;;;;;;;5047903;28;8795;-68
2023/01/23 19:54:47;;;;;;;;;6.67;6.67;;;;;;;;5047711;28;9019;-69
2023/01/23 22:09:29;;;;;;;;;7.00;7.00;;;;;;;;5168519;27;13377;-70
2023/01/23 22:11:55;;;;;;;;;12.00;9.33;;;;;;;;5145879;27;8808;-71
2023/01/23 22:14:20;;;;;;;;;13.00;12.00;;;;;;;;5107186;27;8951;-72
2023/01/23 22:16:48;;;;;;;;;12.67;10.67;;;;;;;;5110564;27;8862;-73
2023/01/23 22:19:15;;;;;;;;;13.67;12.00;;;;;;;;5146806;27;8938;-71
2023/01/23 22:21:42;;;;;;;;;12.00;10.00;;;;;;;;5147155;27;8804;-70
2023/01/23 22:24:07;;;;;;;;;14.33;12.67;;;;;;;;5094102;27;12304;-70
2023/01/23 22:26:32;;;;;;;;;15.33;12.33;;;;;;;;5081482;28;8967;-71
2023/01/23 22:28:58;;;;;;;;;12.00;12.00;;;;;;;;5069165;28;8848;-69
2023/01/23 22:31:23;;;;;;;;;13.00;13.00;;;;;;;;5063649;28;8869;-69
2023/01/23 22:33:48;;;;;;;;;16.33;12.33;;;;;;;;5063832;28;9053;-68
2023/01/23 22:36:15;;;;;;;;;14.33;13.00;;;;;;;;5063985;28;8893;-69
2023/01/23 22:38:41;;;;;;;;;13.67;9.67;;;;;;;;5063922;28;8823;-68
2023/01/23 22:41:06;;;;;;;;;12.00;10.00;;;;;;;;5063807;28;8831;-68
2023/01/23 22:43:33;;;;;;;;;12.00;12.00;;;;;;;;5064869;28;8938;-68
2023/01/23 22:46:02;;;;;;;;;19.00;16.67;;;;;;;;5065615;28;8819;-69
2023/01/23 22:48:27;;;;;;;;;13.67;12.33;;;;;;;;5065601;28;8819;-68
2023/01/23 22:50:52;;;;;;;;;20.67;17.33;;;;;;;;5065339;28;8800;-69
2023/01/23 22:53:18;;;;;;;;;18.67;12.67;;;;;;;;5065367;28;8812;-67
2023/01/23 22:55:43;;;;;;;;;18.33;15.33;;;;;;;;5065402;28;8780;-68
2023/01/23 22:58:09;;;;;;;;;15.00;12.67;;;;;;;;5065412;28;8826;-68
2023/01/23 23:00:34;;;;;;;;;19.67;15.00;;;;;;;;5065355;28;8904;-68
2023/01/23 23:02:59;;;;;;;;;15.33;10.00;;;;;;;;5065089;28;8815;-69
2023/01/23 23:05:25;;;;;;;;;12.00;12.00;;;;;;;;5065125;28;9546;-68
2023/01/23 23:07:50;;;;;;;;;18.00;15.67;;;;;;;;5065085;28;8844;-68
2023/01/23 23:10:15;;;;;;;;;22.67;16.67;;;;;;;;5065013;28;8978;-68
2023/01/23 23:12:40;;;;;;;;;16.00;12.67;;;;;;;;5064843;28;8824;-69
2023/01/23 23:15:06;;;;;;;;;18.00;16.67;;;;;;;;5065007;28;8836;-69
2023/01/23 23:17:31;;;;;;;;;16.67;16.67;;;;;;;;5063353;28;8884;-69
2023/01/23 23:19:56;;;;;;;;;18.67;16.00;;;;;;;;5055654;28;8803;-70
2023/01/23 23:22:22;;;;;;;;;27.00;16.00;;;;;;;;5051770;28;8807;-69
2023/01/23 23:24:47;;;;;;;;;11.33;9.33;;;;;;;;5051891;28;8820;-69
2023/01/23 23:27:12;;;;;;;;;17.67;16.00;;;;;;;;5051467;28;8804;-68
2023/01/23 23:29:37;;;;;;;;;21.67;21.00;;;;;;;;5051409;28;9024;-69
2023/01/23 23:32:03;;;;;;;;;16.00;15.33;;;;;;;;5060496;22;8838;-74
2023/01/23 23:34:28;;;;;;;;;16.00;16.00;;;;;;;;4993815;28;8803;-73
2023/01/23 23:36:53;;;;;;;;;19.00;14.00;;;;;;;;4993750;28;8806;-73
2023/01/23 23:39:18;;;;;;;;;18.00;17.33;;;;;;;;4975964;28;8806;-73
2023/01/23 23:41:44;;;;;;;;;13.00;12.33;;;;;;;;4976070;28;8852;-73
2023/01/23 23:44:09;;;;;;;;;19.00;15.00;;;;;;;;4976146;28;9576;-72
2023/01/23 23:46:34;;;;;;;;;18.67;17.33;;;;;;;;4993423;28;8814;-73
2023/01/23 23:48:59;;;;;;;;;16.00;16.00;;;;;;;;4993404;28;8814;-73
2023/01/23 23:51:27;;;;;;;;;17.33;16.00;;;;;;;;4993209;28;8795;-74
2023/01/23 23:53:54;;;;;;;;;17.33;16.67;;;;;;;;4993576;28;8918;-74
2023/01/23 23:56:21;;;;;;;;;21.00;15.33;;;;;;;;4976102;28;8872;-74
2023/01/23 23:58:47;;;;;;;;;12.00;9.33;;;;;;;;4993442;28;8833;-73
